createdAt,value
2019-01-12T00:00:42.958Z,39.27
2019-01-12T00:03:11.623Z,31.50
2019-01-12T00:05:40.523Z,19.57
2019-01-12T00:08:09.351Z,29.07
2019-01-12T00:10:38.062Z,28.90
2019-01-12T00:13:06.990Z,35.73
2019-01-12T00:15:35.638Z,39.77
2019-01-12T00:18:04.366Z,35.30
2019-01-12T00:20:33.498Z,18.30
2019-01-12T00:23:02.456Z,27.40
2019-01-12T00:25:31.095Z,30.83
2019-01-12T00:27:59.791Z,26.93
2019-01-12T00:30:28.719Z,25.57
2019-01-12T00:32:57.367Z,29.23
2019-01-12T00:35:26.299Z,42.77
2019-01-12T00:37:54.963Z,25.70
2019-01-12T00:40:23.605Z,42.50
2019-01-12T00:42:52.255Z,37.97
2019-01-12T00:45:20.919Z,31.43
2019-01-12T00:47:49.575Z,23.67
2019-01-12T00:50:19.135Z,31.80
2019-01-12T00:52:47.789Z,34.33
2019-01-12T00:55:16.755Z,24.10
2019-01-12T00:57:45.816Z,25.53
2019-01-12T01:00:17.992Z,24.43
2019-01-12T01:02:47.080Z,16.07
2019-01-12T01:05:16.084Z,35.43
2019-01-12T01:07:45.158Z,34.97
2019-01-12T01:10:16.578Z,18.07
2019-01-12T01:12:45.811Z,23.83
2019-01-12T01:15:14.919Z,28.60
2019-01-12T01:17:43.685Z,19.40
2019-01-12T01:20:13.377Z,16.67
2019-01-12T01:22:42.713Z,23.47
2019-01-12T01:25:11.797Z,25.60
2019-01-12T01:27:40.794Z,34.93
2019-01-12T01:30:13.253Z,35.60
2019-01-12T01:32:42.152Z,32.37
2019-01-12T01:35:10.871Z,23.50
2019-01-12T01:37:39.584Z,35.50
2019-01-12T01:40:11.146Z,26.97
2019-01-12T01:42:39.796Z,31.37
2019-01-12T01:45:09.021Z,33.43
2019-01-12T01:47:37.959Z,28.53
2019-01-12T01:50:08.027Z,33.07
2019-01-12T01:52:36.679Z,23.93
2019-01-12T01:55:05.776Z,21.17
2019-01-12T01:57:34.848Z,28.60
2019-01-12T02:00:04.844Z,28.50
2019-01-12T02:02:33.479Z,28.33
2019-01-12T02:05:02.140Z,26.97
2019-01-12T02:07:30.764Z,15.80
2019-01-12T02:09:59.740Z,14.50
2019-01-12T02:12:29.406Z,27.17
2019-01-12T02:14:58.074Z,29.23
2019-01-12T02:17:26.758Z,30.27
2019-01-12T02:19:55.860Z,33.90
2019-01-12T02:22:24.823Z,21.07
2019-01-12T02:24:59.794Z,35.70
2019-01-12T02:27:24.298Z,26.83
2019-01-12T02:29:53.021Z,24.73
2019-01-12T02:32:22.091Z,17.93
2019-01-12T02:34:50.974Z,16.97
2019-01-12T02:37:20.666Z,31.17
2019-01-12T02:39:49.434Z,35.70
2019-01-12T02:42:18.394Z,49.40
2019-01-12T02:44:47.395Z,27.40
2019-01-12T02:47:16.072Z,18.97
2019-01-12T02:49:44.810Z,24.23
2019-01-12T02:52:13.851Z,25.73
2019-01-12T02:54:42.491Z,23.47
2019-01-12T02:57:11.151Z,42.83
2019-01-12T02:59:40.430Z,30.40
2019-01-12T03:02:09.067Z,22.07
2019-01-12T03:04:37.750Z,33.20
2019-01-12T03:07:06.478Z,27.37
2019-01-12T03:09:35.132Z,22.80
2019-01-12T03:12:03.918Z,30.37
2019-01-12T03:14:32.553Z,30.37
2019-01-12T03:17:01.550Z,18.90
2019-01-12T03:19:30.483Z,22.70
2019-01-12T03:21:59.221Z,33.97
2019-01-12T03:24:28.115Z,17.83
2019-01-12T03:26:57.069Z,36.27
2019-01-12T03:29:25.786Z,40.30
2019-01-12T03:31:54.454Z,27.37
2019-01-12T03:34:23.255Z,17.27
2019-01-12T03:36:52.079Z,19.10
2019-01-12T03:39:20.699Z,25.53
2019-01-12T03:41:49.341Z,25.27
2019-01-12T03:44:18.619Z,17.03
2019-01-12T03:46:47.375Z,33.27
2019-01-12T03:49:16.618Z,30.10
2019-01-12T03:51:45.603Z,32.50
2019-01-12T03:54:14.376Z,12.20
2019-01-12T03:56:43.060Z,24.23
2019-01-12T03:59:11.699Z,19.80
2019-01-12T04:01:40.459Z,24.67
2019-01-12T04:04:09.093Z,38.40
2019-01-12T04:06:37.734Z,38.03
2019-01-12T04:09:08.710Z,24.77
2019-01-12T04:11:37.368Z,21.37
2019-01-12T04:14:06.147Z,21.93
2019-01-12T04:16:35.014Z,26.07
2019-01-12T04:19:03.765Z,34.00
2019-01-12T04:21:32.790Z,25.63
2019-01-12T04:24:01.448Z,36.00
2019-01-12T04:26:30.427Z,21.33
2019-01-12T04:28:59.306Z,21.80
2019-01-12T04:31:28.022Z,21.90
2019-01-12T04:33:56.646Z,25.90
2019-01-12T04:36:25.312Z,23.90
2019-01-12T04:38:53.948Z,22.73
2019-01-12T04:41:22.683Z,19.57
2019-01-12T04:43:52.638Z,16.37
2019-01-12T04:46:21.381Z,38.57
2019-01-12T04:48:50.019Z,29.70
2019-01-12T04:51:18.652Z,26.50
2019-01-12T04:53:47.382Z,27.73
2019-01-12T04:56:16.076Z,24.27
2019-01-12T04:58:44.718Z,32.03
2019-01-12T05:01:13.367Z,36.80
2019-01-12T05:03:42.015Z,30.30
2019-01-12T05:06:10.734Z,30.43
2019-01-12T05:08:39.374Z,31.10
2019-01-12T05:11:08.042Z,28.20
2019-01-12T05:13:36.800Z,23.13
2019-01-12T05:16:06.465Z,26.50
2019-01-12T05:18:35.095Z,24.90
2019-01-12T05:21:03.788Z,25.67
2019-01-12T05:23:32.757Z,34.47
2019-01-12T05:26:01.369Z,16.97
2019-01-12T05:28:30.650Z,30.03
2019-01-12T05:30:59.455Z,25.90
2019-01-12T05:33:28.525Z,30.50
2019-01-12T05:35:57.150Z,24.97
2019-01-12T05:38:25.801Z,23.27
2019-01-12T05:40:54.515Z,23.07
2019-01-12T05:43:23.161Z,23.47
2019-01-12T05:45:52.066Z,34.03
2019-01-12T05:48:20.779Z,36.13
2019-01-12T05:50:50.047Z,25.40
2019-01-12T05:53:18.939Z,21.03
2019-01-12T05:55:47.563Z,17.60
2019-01-12T05:58:16.211Z,17.97
2019-01-12T06:00:45.126Z,17.90
2019-01-12T06:03:13.937Z,18.00
2019-01-12T06:05:42.866Z,27.37
2019-01-12T06:08:11.498Z,20.63
2019-01-12T06:10:40.154Z,20.83
2019-01-12T06:13:08.871Z,14.17
2019-01-12T06:15:37.570Z,36.07
2019-01-12T06:18:06.342Z,19.17
2019-01-12T06:20:35.054Z,23.43
2019-01-12T06:23:04.715Z,21.10
2019-01-12T06:25:33.471Z,20.57
2019-01-12T06:28:02.138Z,15.33
2019-01-12T06:30:31.088Z,12.63
2019-01-12T06:32:59.732Z,17.53
2019-01-12T06:35:29.092Z,19.60
2019-01-12T06:37:57.768Z,23.43
2019-01-12T06:40:26.470Z,22.47
2019-01-12T06:42:55.147Z,13.43
2019-01-12T06:45:24.460Z,25.00
2019-01-12T06:47:53.099Z,28.23
2019-01-12T06:50:22.135Z,8.77
2019-01-12T06:52:50.856Z,33.57
2019-01-12T06:55:19.506Z,13.30
2019-01-12T06:57:48.582Z,27.87
2019-01-12T07:00:19.635Z,14.03
2019-01-12T07:02:48.448Z,14.70
2019-01-12T07:05:17.162Z,23.23
2019-01-12T07:07:45.869Z,19.77
2019-01-12T07:10:15.495Z,13.57
2019-01-12T07:12:44.204Z,9.03
2019-01-12T07:15:13.995Z,16.17
2019-01-12T07:17:42.778Z,23.00
2019-01-12T07:20:14.226Z,14.27
2019-01-12T07:22:42.934Z,17.50
2019-01-12T07:25:11.820Z,20.00
2019-01-12T07:27:40.622Z,15.83
2019-01-12T07:30:20.913Z,23.90
2019-01-12T07:32:49.644Z,18.27
2019-01-12T07:35:18.995Z,16.80
2019-01-12T07:37:47.770Z,12.03
2019-01-12T07:40:16.507Z,14.00
2019-01-12T07:42:45.180Z,15.10
2019-01-12T07:45:14.241Z,24.20
2019-01-12T07:47:43.308Z,16.30
2019-01-12T07:50:13.178Z,18.73
2019-01-12T07:52:42.127Z,12.43
2019-01-12T07:55:10.940Z,18.03
2019-01-12T07:57:39.644Z,21.37
2019-01-12T08:00:12.537Z,13.00
2019-01-12T08:02:41.650Z,17.13
2019-01-12T08:05:10.778Z,21.27
2019-01-12T08:07:39.868Z,16.03
2019-01-12T08:10:12.611Z,13.33
2019-01-12T08:12:42.051Z,13.20
2019-01-12T08:15:12.155Z,12.60
2019-01-12T08:17:40.876Z,14.13
2019-01-12T08:20:10.194Z,25.00
2019-01-12T08:22:39.564Z,21.40
2019-01-12T08:25:08.499Z,7.77
2019-01-12T08:27:37.775Z,21.93
2019-01-12T08:30:14.540Z,12.00
2019-01-12T08:32:43.358Z,19.00
2019-01-12T08:35:12.406Z,15.73
2019-01-12T08:37:41.056Z,19.47
2019-01-12T08:40:11.270Z,23.23
2019-01-12T08:42:40.131Z,19.63
2019-01-12T08:45:10.254Z,13.17
2019-01-12T08:47:39.028Z,25.60
2019-01-12T08:50:11.492Z,26.27
2019-01-12T08:52:40.500Z,13.53
2019-01-12T08:55:10.095Z,10.57
2019-01-12T08:57:38.744Z,18.20
2019-01-12T09:00:10.805Z,15.53
2019-01-12T09:02:39.565Z,16.13
2019-01-12T09:05:08.538Z,20.00
2019-01-12T09:07:37.281Z,28.83
2019-01-12T09:10:08.458Z,22.10
2019-01-12T09:12:37.139Z,18.97
2019-01-12T09:15:06.803Z,13.57
2019-01-12T09:17:35.549Z,18.17
2019-01-12T09:20:05.667Z,12.70
2019-01-12T09:22:34.434Z,10.90
2019-01-12T09:25:03.291Z,15.70
2019-01-12T09:27:32.011Z,13.20
2019-01-12T09:30:00.812Z,21.87
2019-01-12T09:32:29.482Z,11.63
2019-01-12T09:34:58.210Z,10.93
2019-01-12T09:37:27.117Z,19.97
2019-01-12T09:39:55.842Z,16.03
2019-01-12T09:42:24.623Z,8.53
2019-01-12T09:44:53.811Z,15.73
2019-01-12T09:47:22.570Z,8.87
2019-01-12T09:49:51.290Z,12.50
2019-01-12T09:52:20.276Z,6.10
2019-01-12T09:54:48.974Z,7.37
2019-01-12T09:57:17.663Z,8.13
2019-01-12T09:59:46.353Z,4.20
2019-01-12T10:02:15.063Z,12.67
2019-01-12T10:04:44.386Z,14.10
2019-01-12T10:07:13.036Z,6.00
2019-01-12T10:09:41.999Z,8.53
2019-01-12T10:12:10.707Z,10.53
2019-01-12T10:14:39.394Z,7.00
2019-01-12T10:17:08.078Z,8.83
2019-01-12T10:19:36.759Z,4.30
2019-01-12T10:22:05.754Z,5.13
2019-01-12T10:24:34.643Z,4.37
2019-01-12T10:27:03.339Z,6.27
2019-01-12T10:29:32.099Z,9.10
2019-01-12T10:32:00.922Z,5.40
2019-01-12T10:34:29.903Z,5.27
2019-01-12T10:36:58.857Z,6.40
2019-01-12T10:39:28.158Z,6.90
2019-01-12T10:41:57.290Z,2.90
2019-01-12T10:44:25.986Z,5.53
2019-01-12T10:46:55.039Z,3.77
2019-01-12T10:49:24.119Z,3.87
2019-01-12T10:51:53.215Z,1.60
2019-01-12T10:54:22.123Z,4.13
2019-01-12T10:56:51.303Z,1.33
2019-01-12T10:59:19.943Z,2.40
2019-01-12T11:01:48.648Z,2.57
2019-01-12T11:04:17.367Z,3.03
2019-01-12T11:06:46.363Z,4.20
2019-01-12T11:09:15.075Z,2.33
2019-01-12T11:11:44.154Z,4.77
2019-01-12T11:14:12.817Z,3.23
2019-01-12T11:16:41.478Z,4.60
2019-01-12T11:19:10.249Z,2.20
2019-01-12T11:21:39.027Z,5.70
2019-01-12T11:24:07.975Z,0.90
2019-01-12T11:26:36.663Z,3.40
2019-01-12T11:29:05.323Z,1.37
2019-01-12T11:31:34.023Z,1.10
2019-01-12T11:34:04.544Z,1.10
2019-01-12T11:36:33.230Z,4.33
2019-01-12T11:39:01.921Z,2.13
2019-01-12T11:41:30.691Z,2.80
2019-01-12T11:43:59.383Z,4.13
2019-01-12T11:46:28.156Z,1.90
2019-01-12T11:48:56.958Z,2.00
2019-01-12T11:51:25.674Z,2.13
2019-01-12T11:53:54.617Z,1.80
2019-01-12T11:56:23.427Z,5.23
2019-01-12T11:58:52.128Z,2.10
2019-01-12T12:01:20.830Z,4.30
2019-01-12T12:03:49.726Z,1.30
2019-01-12T12:06:18.490Z,2.60
2019-01-12T12:08:47.175Z,2.17
2019-01-12T12:11:16.207Z,1.63
2019-01-12T12:13:44.836Z,1.93
2019-01-12T12:16:13.642Z,2.77
2019-01-12T12:18:42.325Z,3.23
2019-01-12T12:21:11.032Z,2.90
2019-01-12T12:23:39.707Z,1.80
2019-01-12T12:26:08.426Z,3.40
2019-01-12T12:28:37.965Z,1.37
2019-01-12T12:31:08.882Z,2.30
2019-01-12T12:33:37.731Z,2.93
2019-01-12T12:36:06.439Z,2.40
2019-01-12T12:38:35.311Z,1.90
2019-01-12T12:41:04.172Z,1.43
2019-01-12T12:43:32.881Z,2.73
2019-01-12T12:46:02.163Z,1.60
2019-01-12T12:48:31.091Z,5.13
2019-01-12T12:50:59.767Z,3.80
2019-01-12T12:53:28.438Z,4.73
2019-01-12T12:55:57.132Z,3.90
2019-01-12T12:58:25.887Z,1.17
2019-01-12T13:00:54.860Z,1.33
2019-01-12T13:03:23.511Z,3.43
2019-01-12T13:05:52.902Z,1.70
2019-01-12T13:08:21.595Z,4.17
2019-01-12T13:10:50.366Z,2.93
2019-01-12T13:13:19.302Z,1.87
2019-01-12T13:15:47.989Z,1.83
2019-01-12T13:18:17.099Z,5.33
2019-01-12T13:20:46.127Z,1.40
2019-01-12T13:23:14.905Z,2.33
2019-01-12T13:25:43.815Z,1.40
2019-01-12T13:28:12.599Z,1.37
2019-01-12T13:30:41.325Z,4.03
2019-01-12T13:33:09.991Z,1.67
2019-01-12T13:35:38.827Z,2.77
2019-01-12T13:38:07.745Z,1.70
2019-01-12T13:40:36.578Z,1.60
2019-01-12T13:43:05.251Z,1.63
2019-01-12T13:45:33.939Z,2.23
2019-01-12T13:48:02.739Z,3.17
2019-01-12T13:50:31.493Z,3.50
2019-01-12T13:53:00.203Z,3.60
2019-01-12T13:55:28.962Z,1.43
2019-01-12T13:57:57.691Z,2.03
2019-01-12T14:00:32.120Z,1.87
2019-01-12T14:03:01.718Z,2.33
2019-01-12T14:05:31.061Z,5.13
2019-01-12T14:08:00.048Z,4.00
2019-01-12T14:10:28.685Z,1.20
2019-01-12T14:12:58.315Z,4.10
2019-01-12T14:15:27.262Z,2.40
2019-01-12T14:17:56.069Z,4.13
2019-01-12T14:20:27.271Z,2.77
2019-01-12T14:22:56.245Z,3.27
2019-01-12T14:25:25.459Z,3.00
2019-01-12T14:27:55.115Z,2.40
2019-01-12T14:30:24.123Z,4.57
2019-01-12T14:32:52.888Z,3.33
2019-01-12T14:35:21.594Z,5.37
2019-01-12T14:37:51.184Z,2.27
2019-01-12T14:40:20.255Z,4.40
2019-01-12T14:42:49.050Z,2.80
2019-01-12T14:45:20.785Z,3.07
2019-01-12T14:47:49.587Z,2.47
2019-01-12T14:50:18.698Z,3.57
2019-01-12T14:52:47.773Z,4.43
2019-01-12T14:55:16.850Z,2.70
2019-01-12T14:57:45.594Z,2.87
2019-01-12T15:00:19.882Z,3.70
2019-01-12T15:02:48.682Z,5.07
2019-01-12T15:05:19.448Z,2.83
2019-01-12T15:07:48.241Z,2.57
2019-01-12T15:10:18.376Z,3.27
2019-01-12T15:12:47.542Z,5.77
2019-01-12T15:15:16.703Z,4.00
2019-01-12T15:17:45.398Z,5.33
2019-01-12T15:20:17.265Z,2.67
2019-01-12T15:22:46.094Z,3.20
2019-01-12T15:25:15.343Z,3.77
2019-01-12T15:27:44.163Z,3.10
2019-01-12T15:30:25.059Z,5.47
2019-01-12T15:32:53.920Z,5.03
2019-01-12T15:35:23.723Z,4.13
2019-01-12T15:37:52.898Z,4.53
2019-01-12T15:40:22.405Z,3.67
2019-01-12T15:42:51.716Z,3.53
2019-01-12T15:45:22.794Z,3.90
2019-01-12T15:47:51.717Z,5.70
2019-01-12T15:50:23.115Z,7.10
2019-01-12T15:52:52.056Z,4.80
2019-01-12T15:55:21.489Z,3.03
2019-01-12T15:57:50.394Z,3.17
2019-01-12T16:00:27.163Z,4.03
2019-01-12T16:02:56.664Z,6.13
2019-01-12T16:05:25.833Z,3.17
2019-01-12T16:07:54.863Z,5.93
2019-01-12T16:10:23.522Z,3.57
2019-01-12T16:12:52.337Z,4.17
2019-01-12T16:15:22.950Z,3.07
2019-01-12T16:17:51.927Z,2.60
2019-01-12T16:20:29.041Z,4.93
2019-01-12T16:22:58.047Z,3.03
2019-01-12T16:25:27.123Z,4.63
2019-01-12T16:27:55.798Z,4.30
2019-01-12T16:30:24.607Z,4.97
2019-01-12T16:32:53.255Z,4.07
2019-01-12T16:35:22.011Z,4.23
2019-01-12T16:37:51.055Z,3.83
2019-01-12T16:40:21.587Z,4.17
2019-01-12T16:42:50.755Z,4.53
2019-01-12T16:45:19.532Z,5.03
2019-01-12T16:47:48.718Z,5.30
2019-01-12T16:50:17.893Z,5.50
2019-01-12T16:52:46.958Z,5.47
2019-01-12T16:55:16.341Z,4.97
2019-01-12T16:57:45.522Z,5.50
2019-01-12T17:00:22.391Z,5.27
2019-01-12T17:02:51.530Z,5.23
2019-01-12T17:05:20.465Z,4.37
2019-01-12T17:07:49.509Z,4.07
2019-01-12T17:10:19.592Z,3.80
2019-01-12T17:12:48.520Z,5.43
2019-01-12T17:15:18.872Z,4.33
2019-01-12T17:17:47.762Z,4.43
2019-01-12T17:20:19.396Z,3.67
2019-01-12T17:22:48.523Z,4.33
2019-01-12T17:25:17.497Z,5.33
2019-01-12T17:27:46.554Z,5.60
2019-01-12T17:30:20.047Z,7.27
2019-01-12T17:32:48.766Z,6.03
2019-01-12T17:35:17.562Z,10.23
2019-01-12T17:37:47.439Z,6.73
2019-01-12T17:40:16.620Z,4.93
2019-01-12T17:42:45.515Z,4.90
2019-01-12T17:45:16.935Z,3.80
2019-01-12T17:47:45.988Z,5.10
2019-01-12T17:50:17.524Z,4.77
2019-01-12T17:52:46.513Z,5.13
2019-01-12T17:55:21.911Z,4.47
2019-01-12T17:57:51.439Z,5.07
2019-01-12T18:00:32.733Z,5.07
2019-01-12T18:03:01.622Z,5.43
2019-01-12T18:05:30.593Z,6.30
2019-01-12T18:08:00.571Z,5.90
2019-01-12T18:10:30.347Z,6.30
2019-01-12T18:12:59.090Z,5.37
2019-01-12T18:15:27.777Z,6.00
2019-01-12T18:17:56.463Z,6.87
2019-01-12T18:20:25.422Z,10.93
2019-01-12T18:22:54.127Z,7.33
2019-01-12T18:25:24.178Z,6.80
2019-01-12T18:27:53.010Z,6.43
2019-01-12T18:30:23.725Z,5.10
2019-01-12T18:32:52.786Z,5.20
2019-01-12T18:35:21.539Z,11.20
2019-01-12T18:37:50.248Z,6.00
2019-01-12T18:40:19.543Z,11.40
2019-01-12T18:42:48.682Z,5.40
2019-01-12T18:45:18.167Z,6.60
2019-01-12T18:47:46.969Z,6.30
2019-01-12T18:50:18.317Z,6.20
2019-01-12T18:52:47.148Z,6.17
2019-01-12T18:55:15.943Z,11.07
2019-01-12T18:57:44.728Z,5.37
2019-01-12T19:00:22.207Z,6.73
2019-01-12T19:02:51.294Z,5.50
2019-01-12T19:05:20.809Z,5.70
2019-01-12T19:07:49.694Z,7.00
2019-01-12T19:10:18.407Z,6.67
2019-01-12T19:12:47.182Z,7.87
2019-01-12T19:15:24.386Z,5.23
2019-01-12T19:17:53.114Z,5.27
2019-01-12T19:20:21.809Z,5.57
2019-01-12T19:22:50.814Z,6.73
2019-01-12T19:25:19.481Z,7.17
2019-01-12T19:27:48.151Z,8.57
2019-01-12T19:30:18.431Z,6.70
2019-01-12T19:32:47.625Z,6.60
2019-01-12T19:35:16.378Z,4.60
2019-01-12T19:37:45.715Z,6.70
2019-01-12T19:40:16.569Z,6.43
2019-01-12T19:42:45.459Z,7.03
2019-01-12T19:45:15.011Z,7.87
2019-01-12T19:47:43.805Z,6.70
2019-01-12T19:50:15.561Z,9.33
2019-01-12T19:52:44.563Z,5.23
2019-01-12T19:55:13.481Z,5.47
2019-01-12T19:57:42.145Z,6.63
2019-01-12T20:00:13.721Z,7.43
2019-01-12T20:02:42.921Z,5.33
2019-01-12T20:05:18.838Z,5.80
2019-01-12T20:07:47.634Z,5.83
2019-01-12T20:10:17.287Z,9.90
2019-01-12T20:12:45.974Z,5.07
2019-01-12T20:15:17.581Z,9.63
2019-01-12T20:17:46.551Z,6.70
2019-01-12T20:20:15.708Z,4.57
2019-01-12T20:22:44.752Z,9.67
2019-01-12T20:25:22.520Z,10.27
2019-01-12T20:27:51.507Z,6.30
2019-01-12T20:30:40.296Z,6.77
2019-01-12T20:33:16.808Z,12.87
2019-01-12T20:36:17.294Z,8.00
2019-01-12T20:39:01.694Z,10.97
2019-01-12T20:42:24.062Z,5.83
2019-01-12T20:45:27.649Z,5.53
2019-01-12T20:48:38.227Z,10.00
2019-01-12T20:51:51.683Z,5.67
2019-01-12T20:54:57.091Z,3.67
2019-01-12T20:57:38.720Z,5.73
2019-01-12T21:00:51.051Z,9.40
2019-01-12T21:03:42.535Z,7.47
2019-01-12T21:06:36.683Z,7.73
2019-01-12T21:09:32.639Z,5.20
2019-01-12T21:12:33.697Z,3.73
2019-01-12T21:15:08.312Z,4.37
2019-01-12T21:17:37.306Z,10.20
2019-01-12T21:20:07.700Z,5.47
2019-01-12T21:22:36.374Z,4.40
2019-01-12T21:25:07.038Z,5.00
2019-01-12T21:27:36.252Z,5.57
2019-01-12T21:30:08.676Z,7.73
2019-01-12T21:32:37.310Z,5.57
2019-01-12T21:35:08.290Z,4.23
2019-01-12T21:37:37.243Z,3.80
2019-01-12T21:40:07.024Z,3.17
2019-01-12T21:42:35.871Z,4.43
2019-01-12T21:45:06.662Z,6.43
2019-01-12T21:47:35.295Z,4.93
2019-01-12T21:50:04.874Z,3.57
2019-01-12T21:52:33.722Z,5.93
2019-01-12T21:57:19.806Z,3.83
2019-01-12T21:59:48.719Z,3.67
2019-01-12T22:02:17.587Z,3.20
2019-01-12T22:04:46.308Z,1.90
2019-01-12T22:07:14.957Z,3.10
2019-01-12T22:09:43.938Z,4.97
2019-01-12T22:12:12.573Z,3.57
2019-01-12T22:14:41.247Z,4.00
2019-01-12T22:17:09.874Z,3.60
2019-01-12T22:19:38.547Z,6.30
2019-01-12T22:22:07.174Z,7.27
2019-01-12T22:24:35.832Z,7.07
2019-01-12T22:27:04.842Z,4.33
2019-01-12T22:29:34.036Z,6.60
2019-01-12T22:32:02.679Z,4.73
2019-01-12T22:34:31.430Z,6.87
2019-01-12T22:37:00.291Z,5.23
2019-01-12T22:39:28.970Z,5.77
2019-01-12T22:41:57.634Z,5.20
2019-01-12T22:44:26.323Z,9.13
2019-01-12T22:46:55.250Z,4.03
2019-01-12T22:49:24.932Z,4.33
2019-01-12T22:51:53.619Z,10.07
2019-01-12T22:54:23.419Z,6.17
2019-01-12T22:56:52.358Z,2.77
2019-01-12T22:59:21.004Z,3.57
2019-01-12T23:01:53.597Z,5.97
2019-01-12T23:04:24.134Z,11.67
2019-01-12T23:06:53.173Z,6.20
2019-01-12T23:09:21.812Z,3.77
2019-01-12T23:11:50.526Z,6.30
2019-01-12T23:14:19.535Z,3.87
2019-01-12T23:16:48.343Z,3.27
2019-01-12T23:19:16.979Z,4.50
2019-01-12T23:21:46.078Z,4.00
2019-01-12T23:24:14.766Z,6.80
2019-01-12T23:26:43.483Z,3.57
2019-01-12T23:29:12.234Z,2.50
2019-01-12T23:31:41.135Z,2.13
2019-01-12T23:34:09.782Z,8.93
2019-01-12T23:36:38.527Z,4.80
2019-01-12T23:39:11.906Z,4.50
2019-01-12T23:41:40.554Z,1.70
2019-01-12T23:44:14.823Z,7.47
2019-01-12T23:46:40.135Z,6.40
2019-01-12T23:49:09.207Z,4.47
2019-01-12T23:51:37.923Z,10.73
2019-01-12T23:54:06.563Z,3.23
2019-01-12T23:56:35.344Z,3.97
2019-01-12T23:59:04.064Z,3.30
